sensor_id;sensor_type;location;lat;lon;timestamp;temperature;humidity
15937;DHT22;9163;48.818;8.976;2022-09-03T00:00:10;16.40;99.90
15937;DHT22;9163;48.818;8.976;2022-09-03T00:02:42;16.40;99.90
15937;DHT22;9163;48.818;8.976;2022-09-03T00:05:17;16.50;99.90
15937;DHT22;9163;48.818;8.976;2022-09-03T00:07:55;16.60;99.90
15937;DHT22;9163;48.818;8.976;2022-09-03T00:10:28;16.60;99.90
15937;DHT22;9163;48.818;8.976;2022-09-03T00:12:58;16.60;99.90
15937;DHT22;9163;48.818;8.976;2022-09-03T00:15:29;16.60;99.90
15937;DHT22;9163;48.818;8.976;2022-09-03T00:18:03;16.60;99.90
15937;DHT22;9163;48.818;8.976;2022-09-03T00:20:35;16.60;99.90
15937;DHT22;9163;48.818;8.976;2022-09-03T00:23:07;16.60;99.90
15937;DHT22;9163;48.818;8.976;2022-09-03T00:25:38;16.60;99.90
15937;DHT22;9163;48.818;8.976;2022-09-03T00:28:12;16.60;99.90
15937;DHT22;9163;48.818;8.976;2022-09-03T00:30:40;16.60;99.90
15937;DHT22;9163;48.818;8.976;2022-09-03T00:33:16;16.50;99.90
15937;DHT22;9163;48.818;8.976;2022-09-03T00:35:47;16.50;99.90
15937;DHT22;9163;48.818;8.976;2022-09-03T00:38:16;16.40;99.90
15937;DHT22;9163;48.818;8.976;2022-09-03T00:40:54;16.40;99.90
15937;DHT22;9163;48.818;8.976;2022-09-03T00:43:33;16.40;99.90
15937;DHT22;9163;48.818;8.976;2022-09-03T00:46:09;16.40;99.90
15937;DHT22;9163;48.818;8.976;2022-09-03T00:49:05;16.30;99.90
15937;DHT22;9163;48.818;8.976;2022-09-03T00:51:42;16.30;99.90
15937;DHT22;9163;48.818;8.976;2022-09-03T00:54:15;16.30;99.90
15937;DHT22;9163;48.818;8.976;2022-09-03T00:56:50;16.30;99.90
15937;DHT22;9163;48.818;8.976;2022-09-03T00:59:29;16.30;99.90
15937;DHT22;9163;48.818;8.976;2022-09-03T01:02:06;16.30;99.90
15937;DHT22;9163;48.818;8.976;2022-09-03T01:04:49;16.40;99.90
15937;DHT22;9163;48.818;8.976;2022-09-03T01:07:27;16.40;99.90
15937;DHT22;9163;48.818;8.976;2022-09-03T01:10:06;16.50;99.90
15937;DHT22;9163;48.818;8.976;2022-09-03T01:12:42;16.40;99.90
15937;DHT22;9163;48.818;8.976;2022-09-03T01:15:18;16.40;99.90
15937;DHT22;9163;48.818;8.976;2022-09-03T01:20:54;16.40;99.90
15937;DHT22;9163;48.818;8.976;2022-09-03T01:26:43;16.40;99.90
15937;DHT22;9163;48.818;8.976;2022-09-03T01:29:19;16.30;99.90
15937;DHT22;9163;48.818;8.976;2022-09-03T01:32:00;16.20;99.90
15937;DHT22;9163;48.818;8.976;2022-09-03T01:34:41;16.20;99.90
15937;DHT22;9163;48.818;8.976;2022-09-03T01:37:16;16.20;99.90
15937;DHT22;9163;48.818;8.976;2022-09-03T01:39:57;16.20;99.90
15937;DHT22;9163;48.818;8.976;2022-09-03T01:42:32;16.10;99.90
15937;DHT22;9163;48.818;8.976;2022-09-03T01:45:17;16.10;99.90
15937;DHT22;9163;48.818;8.976;2022-09-03T01:47:57;16.00;99.90
15937;DHT22;9163;48.818;8.976;2022-09-03T01:50:38;16.00;99.90
15937;DHT22;9163;48.818;8.976;2022-09-03T01:53:16;16.00;99.90
15937;DHT22;9163;48.818;8.976;2022-09-03T01:55:59;16.00;99.90
15937;DHT22;9163;48.818;8.976;2022-09-03T01:58:39;16.00;99.90
15937;DHT22;9163;48.818;8.976;2022-09-03T02:01:16;16.00;99.90
15937;DHT22;9163;48.818;8.976;2022-09-03T02:03:46;15.90;99.90
15937;DHT22;9163;48.818;8.976;2022-09-03T02:06:14;16.00;99.90
15937;DHT22;9163;48.818;8.976;2022-09-03T02:08:43;16.00;99.90
15937;DHT22;9163;48.818;8.976;2022-09-03T02:11:10;16.00;99.90
15937;DHT22;9163;48.818;8.976;2022-09-03T02:13:39;15.90;99.90
15937;DHT22;9163;48.818;8.976;2022-09-03T02:16:12;15.90;99.90
15937;DHT22;9163;48.818;8.976;2022-09-03T02:18:43;15.90;99.90
15937;DHT22;9163;48.818;8.976;2022-09-03T02:21:14;15.80;99.90
15937;DHT22;9163;48.818;8.976;2022-09-03T02:23:42;15.80;99.90
15937;DHT22;9163;48.818;8.976;2022-09-03T02:26:11;15.70;99.90
15937;DHT22;9163;48.818;8.976;2022-09-03T02:28:39;15.60;99.90
15937;DHT22;9163;48.818;8.976;2022-09-03T02:31:06;15.60;99.90
15937;DHT22;9163;48.818;8.976;2022-09-03T02:33:37;15.60;99.90
15937;DHT22;9163;48.818;8.976;2022-09-03T02:36:07;15.60;99.90
15937;DHT22;9163;48.818;8.976;2022-09-03T02:38:35;15.60;99.90
15937;DHT22;9163;48.818;8.976;2022-09-03T02:41:02;15.50;99.90
15937;DHT22;9163;48.818;8.976;2022-09-03T02:43:33;15.50;99.90
15937;DHT22;9163;48.818;8.976;2022-09-03T02:46:06;15.50;99.90
15937;DHT22;9163;48.818;8.976;2022-09-03T02:48:36;15.40;99.90
15937;DHT22;9163;48.818;8.976;2022-09-03T02:51:03;15.40;99.90
15937;DHT22;9163;48.818;8.976;2022-09-03T02:53:30;15.40;99.90
15937;DHT22;9163;48.818;8.976;2022-09-03T02:55:58;15.30;99.90
15937;DHT22;9163;48.818;8.976;2022-09-03T02:58:26;15.30;99.90
15937;DHT22;9163;48.818;8.976;2022-09-03T03:00:54;15.30;99.90
15937;DHT22;9163;48.818;8.976;2022-09-03T03:03:21;15.30;99.90
15937;DHT22;9163;48.818;8.976;2022-09-03T03:05:52;15.30;99.90
15937;DHT22;9163;48.818;8.976;2022-09-03T03:08:24;15.30;99.90
15937;DHT22;9163;48.818;8.976;2022-09-03T03:10:53;15.30;99.90
15937;DHT22;9163;48.818;8.976;2022-09-03T03:13:24;15.30;99.90
15937;DHT22;9163;48.818;8.976;2022-09-03T03:15:54;15.30;99.90
15937;DHT22;9163;48.818;8.976;2022-09-03T03:18:22;15.40;99.90
15937;DHT22;9163;48.818;8.976;2022-09-03T03:20:51;15.50;99.90
15937;DHT22;9163;48.818;8.976;2022-09-03T03:23:18;15.50;99.90
15937;DHT22;9163;48.818;8.976;2022-09-03T03:25:46;15.40;99.90
15937;DHT22;9163;48.818;8.976;2022-09-03T03:28:13;15.40;99.90
15937;DHT22;9163;48.818;8.976;2022-09-03T03:30:40;15.40;99.90
15937;DHT22;9163;48.818;8.976;2022-09-03T03:33:12;15.40;99.90
15937;DHT22;9163;48.818;8.976;2022-09-03T03:35:39;15.40;99.90
15937;DHT22;9163;48.818;8.976;2022-09-03T03:38:09;15.40;99.90
15937;DHT22;9163;48.818;8.976;2022-09-03T03:40:36;15.40;99.90
15937;DHT22;9163;48.818;8.976;2022-09-03T03:43:04;15.40;99.90
15937;DHT22;9163;48.818;8.976;2022-09-03T03:45:31;15.40;99.90
15937;DHT22;9163;48.818;8.976;2022-09-03T03:47:59;15.40;99.90
15937;DHT22;9163;48.818;8.976;2022-09-03T03:50:26;15.40;99.90
15937;DHT22;9163;48.818;8.976;2022-09-03T03:52:54;15.40;99.90
15937;DHT22;9163;48.818;8.976;2022-09-03T03:55:22;15.40;99.90
15937;DHT22;9163;48.818;8.976;2022-09-03T03:57:50;15.50;99.90
15937;DHT22;9163;48.818;8.976;2022-09-03T04:00:17;15.40;99.90
15937;DHT22;9163;48.818;8.976;2022-09-03T04:02:44;15.40;99.90
15937;DHT22;9163;48.818;8.976;2022-09-03T04:05:12;15.40;99.90
15937;DHT22;9163;48.818;8.976;2022-09-03T04:07:40;15.50;99.90
15937;DHT22;9163;48.818;8.976;2022-09-03T04:10:09;15.50;99.90
15937;DHT22;9163;48.818;8.976;2022-09-03T04:12:37;15.50;99.90
15937;DHT22;9163;48.818;8.976;2022-09-03T04:15:05;15.40;99.90
15937;DHT22;9163;48.818;8.976;2022-09-03T04:17:32;15.40;99.90
15937;DHT22;9163;48.818;8.976;2022-09-03T04:20:00;15.30;99.90
15937;DHT22;9163;48.818;8.976;2022-09-03T04:22:28;15.30;99.90
15937;DHT22;9163;48.818;8.976;2022-09-03T04:24:55;15.30;99.90
15937;DHT22;9163;48.818;8.976;2022-09-03T04:27:22;15.30;99.90
15937;DHT22;9163;48.818;8.976;2022-09-03T04:29:51;15.30;99.90
15937;DHT22;9163;48.818;8.976;2022-09-03T04:32:18;15.30;99.90
15937;DHT22;9163;48.818;8.976;2022-09-03T04:35:00;15.20;99.90
15937;DHT22;9163;48.818;8.976;2022-09-03T04:37:27;15.20;99.90
15937;DHT22;9163;48.818;8.976;2022-09-03T04:39:54;15.20;99.90
15937;DHT22;9163;48.818;8.976;2022-09-03T04:42:22;15.30;99.90
15937;DHT22;9163;48.818;8.976;2022-09-03T04:44:50;15.30;99.90
15937;DHT22;9163;48.818;8.976;2022-09-03T04:47:18;15.40;99.90
15937;DHT22;9163;48.818;8.976;2022-09-03T04:49:45;15.40;99.90
15937;DHT22;9163;48.818;8.976;2022-09-03T04:52:12;15.40;99.90
15937;DHT22;9163;48.818;8.976;2022-09-03T04:54:40;15.50;99.90
15937;DHT22;9163;48.818;8.976;2022-09-03T04:57:07;15.50;99.90
15937;DHT22;9163;48.818;8.976;2022-09-03T04:59:35;15.60;99.90
15937;DHT22;9163;48.818;8.976;2022-09-03T05:02:04;15.60;99.90
15937;DHT22;9163;48.818;8.976;2022-09-03T05:04:31;15.60;99.90
15937;DHT22;9163;48.818;8.976;2022-09-03T05:06:58;15.60;99.90
15937;DHT22;9163;48.818;8.976;2022-09-03T05:09:26;15.60;99.90
15937;DHT22;9163;48.818;8.976;2022-09-03T05:11:53;15.60;99.90
15937;DHT22;9163;48.818;8.976;2022-09-03T05:14:20;15.60;99.90
15937;DHT22;9163;48.818;8.976;2022-09-03T05:16:48;15.50;99.90
15937;DHT22;9163;48.818;8.976;2022-09-03T05:19:16;15.50;99.90
15937;DHT22;9163;48.818;8.976;2022-09-03T05:21:43;15.50;99.90
15937;DHT22;9163;48.818;8.976;2022-09-03T05:24:11;15.60;99.90
15937;DHT22;9163;48.818;8.976;2022-09-03T05:26:39;15.60;99.90
15937;DHT22;9163;48.818;8.976;2022-09-03T05:29:07;15.70;99.90
15937;DHT22;9163;48.818;8.976;2022-09-03T05:31:37;15.70;99.90
15937;DHT22;9163;48.818;8.976;2022-09-03T05:34:05;15.80;99.90
15937;DHT22;9163;48.818;8.976;2022-09-03T05:36:35;15.80;99.90
15937;DHT22;9163;48.818;8.976;2022-09-03T05:39:03;15.90;99.90
15937;DHT22;9163;48.818;8.976;2022-09-03T05:41:31;15.90;99.90
15937;DHT22;9163;48.818;8.976;2022-09-03T05:43:58;16.00;99.90
15937;DHT22;9163;48.818;8.976;2022-09-03T05:46:27;16.00;99.90
15937;DHT22;9163;48.818;8.976;2022-09-03T05:48:56;16.00;99.90
15937;DHT22;9163;48.818;8.976;2022-09-03T05:51:25;16.00;99.90
15937;DHT22;9163;48.818;8.976;2022-09-03T05:53:53;16.00;99.90
15937;DHT22;9163;48.818;8.976;2022-09-03T05:56:23;16.10;99.90
15937;DHT22;9163;48.818;8.976;2022-09-03T05:58:53;16.10;99.90
15937;DHT22;9163;48.818;8.976;2022-09-03T06:01:24;16.10;99.90
15937;DHT22;9163;48.818;8.976;2022-09-03T06:03:54;16.10;99.90
15937;DHT22;9163;48.818;8.976;2022-09-03T06:06:22;16.10;99.90
15937;DHT22;9163;48.818;8.976;2022-09-03T06:08:52;16.20;99.90
15937;DHT22;9163;48.818;8.976;2022-09-03T06:11:20;16.30;99.90
15937;DHT22;9163;48.818;8.976;2022-09-03T06:13:50;16.40;99.90
15937;DHT22;9163;48.818;8.976;2022-09-03T06:16:17;16.50;99.90
15937;DHT22;9163;48.818;8.976;2022-09-03T06:18:45;16.60;99.90
15937;DHT22;9163;48.818;8.976;2022-09-03T06:21:12;16.70;99.90
15937;DHT22;9163;48.818;8.976;2022-09-03T06:23:40;16.80;99.90
15937;DHT22;9163;48.818;8.976;2022-09-03T06:26:10;16.90;99.90
15937;DHT22;9163;48.818;8.976;2022-09-03T06:28:39;17.00;99.90
15937;DHT22;9163;48.818;8.976;2022-09-03T06:31:10;17.00;99.90
15937;DHT22;9163;48.818;8.976;2022-09-03T06:33:39;17.10;99.90
15937;DHT22;9163;48.818;8.976;2022-09-03T06:36:09;17.10;99.90
15937;DHT22;9163;48.818;8.976;2022-09-03T06:38:37;17.10;99.90
15937;DHT22;9163;48.818;8.976;2022-09-03T06:41:06;17.10;99.90
15937;DHT22;9163;48.818;8.976;2022-09-03T06:43:36;17.00;99.90
15937;DHT22;9163;48.818;8.976;2022-09-03T06:46:06;17.00;99.90
15937;DHT22;9163;48.818;8.976;2022-09-03T06:48:36;16.90;99.90
15937;DHT22;9163;48.818;8.976;2022-09-03T06:51:06;17.00;99.90
15937;DHT22;9163;48.818;8.976;2022-09-03T06:53:35;17.00;99.90
15937;DHT22;9163;48.818;8.976;2022-09-03T06:56:04;17.00;99.90
15937;DHT22;9163;48.818;8.976;2022-09-03T06:58:35;17.20;99.90
15937;DHT22;9163;48.818;8.976;2022-09-03T07:01:04;17.30;99.90
15937;DHT22;9163;48.818;8.976;2022-09-03T07:03:32;17.30;99.90
15937;DHT22;9163;48.818;8.976;2022-09-03T07:06:00;17.30;99.90
15937;DHT22;9163;48.818;8.976;2022-09-03T07:08:28;17.30;99.90
15937;DHT22;9163;48.818;8.976;2022-09-03T07:10:57;17.50;99.90
15937;DHT22;9163;48.818;8.976;2022-09-03T07:13:25;17.70;99.90
15937;DHT22;9163;48.818;8.976;2022-09-03T07:16:01;17.80;99.90
15937;DHT22;9163;48.818;8.976;2022-09-03T07:18:29;17.90;99.90
15937;DHT22;9163;48.818;8.976;2022-09-03T07:20:58;18.10;99.90
15937;DHT22;9163;48.818;8.976;2022-09-03T07:23:26;18.20;99.90
15937;DHT22;9163;48.818;8.976;2022-09-03T07:25:54;18.40;99.90
15937;DHT22;9163;48.818;8.976;2022-09-03T07:28:22;18.50;99.90
15937;DHT22;9163;48.818;8.976;2022-09-03T07:30:50;18.70;99.90
15937;DHT22;9163;48.818;8.976;2022-09-03T07:33:19;18.80;99.90
15937;DHT22;9163;48.818;8.976;2022-09-03T07:35:47;18.80;99.90
15937;DHT22;9163;48.818;8.976;2022-09-03T07:38:16;19.10;99.90
15937;DHT22;9163;48.818;8.976;2022-09-03T07:40:45;19.40;99.90
15937;DHT22;9163;48.818;8.976;2022-09-03T07:43:13;19.80;99.90
15937;DHT22;9163;48.818;8.976;2022-09-03T07:45:40;20.00;99.90
15937;DHT22;9163;48.818;8.976;2022-09-03T07:48:11;20.10;99.90
15937;DHT22;9163;48.818;8.976;2022-09-03T07:50:40;20.40;99.90
15937;DHT22;9163;48.818;8.976;2022-09-03T07:53:07;20.70;99.90
15937;DHT22;9163;48.818;8.976;2022-09-03T07:55:34;20.80;99.90
15937;DHT22;9163;48.818;8.976;2022-09-03T07:58:01;21.00;99.90
15937;DHT22;9163;48.818;8.976;2022-09-03T08:00:29;21.30;99.90
15937;DHT22;9163;48.818;8.976;2022-09-03T08:02:59;21.50;99.90
15937;DHT22;9163;48.818;8.976;2022-09-03T08:05:31;21.80;99.90
15937;DHT22;9163;48.818;8.976;2022-09-03T08:08:00;21.60;99.90
15937;DHT22;9163;48.818;8.976;2022-09-03T08:10:28;21.60;99.90
15937;DHT22;9163;48.818;8.976;2022-09-03T08:12:56;21.60;99.90
15937;DHT22;9163;48.818;8.976;2022-09-03T08:15:24;21.50;99.90
15937;DHT22;9163;48.818;8.976;2022-09-03T08:17:51;21.50;99.90
15937;DHT22;9163;48.818;8.976;2022-09-03T08:20:19;21.50;99.90
15937;DHT22;9163;48.818;8.976;2022-09-03T08:22:46;21.50;99.90
15937;DHT22;9163;48.818;8.976;2022-09-03T08:25:16;21.40;99.90
15937;DHT22;9163;48.818;8.976;2022-09-03T08:27:43;21.40;99.90
15937;DHT22;9163;48.818;8.976;2022-09-03T08:30:11;21.40;99.90
15937;DHT22;9163;48.818;8.976;2022-09-03T08:32:38;21.40;99.90
15937;DHT22;9163;48.818;8.976;2022-09-03T08:35:06;21.30;99.90
15937;DHT22;9163;48.818;8.976;2022-09-03T08:37:34;21.30;99.90
15937;DHT22;9163;48.818;8.976;2022-09-03T08:40:02;21.30;99.90
15937;DHT22;9163;48.818;8.976;2022-09-03T08:42:40;21.20;99.90
15937;DHT22;9163;48.818;8.976;2022-09-03T08:45:15;21.30;99.90
15937;DHT22;9163;48.818;8.976;2022-09-03T08:47:47;21.40;99.90
15937;DHT22;9163;48.818;8.976;2022-09-03T08:50:21;21.50;99.90
15937;DHT22;9163;48.818;8.976;2022-09-03T08:52:52;21.70;99.90
15937;DHT22;9163;48.818;8.976;2022-09-03T08:55:30;21.70;99.90
15937;DHT22;9163;48.818;8.976;2022-09-03T08:58:04;21.80;99.90
15937;DHT22;9163;48.818;8.976;2022-09-03T09:00:41;21.90;99.90
15937;DHT22;9163;48.818;8.976;2022-09-03T09:03:25;22.10;99.90
15937;DHT22;9163;48.818;8.976;2022-09-03T09:06:05;22.40;99.90
15937;DHT22;9163;48.818;8.976;2022-09-03T09:08:38;22.50;99.90
15937;DHT22;9163;48.818;8.976;2022-09-03T09:11:15;22.80;99.90
15937;DHT22;9163;48.818;8.976;2022-09-03T09:13:53;23.10;99.90
15937;DHT22;9163;48.818;8.976;2022-09-03T09:16:30;23.40;99.90
15937;DHT22;9163;48.818;8.976;2022-09-03T09:19:17;24.10;99.90
15937;DHT22;9163;48.818;8.976;2022-09-03T09:21:51;24.50;99.90
15937;DHT22;9163;48.818;8.976;2022-09-03T09:24:22;25.20;99.90
15937;DHT22;9163;48.818;8.976;2022-09-03T09:26:57;25.30;99.90
15937;DHT22;9163;48.818;8.976;2022-09-03T09:29:30;25.40;99.90
15937;DHT22;9163;48.818;8.976;2022-09-03T09:31:58;25.40;99.90
15937;DHT22;9163;48.818;8.976;2022-09-03T09:34:25;25.40;99.90
15937;DHT22;9163;48.818;8.976;2022-09-03T09:36:54;25.70;99.90
15937;DHT22;9163;48.818;8.976;2022-09-03T09:39:22;25.70;99.90
15937;DHT22;9163;48.818;8.976;2022-09-03T09:41:59;25.80;99.90
15937;DHT22;9163;48.818;8.976;2022-09-03T09:44:36;26.00;99.90
15937;DHT22;9163;48.818;8.976;2022-09-03T09:47:09;26.10;99.90
15937;DHT22;9163;48.818;8.976;2022-09-03T09:49:51;25.90;99.90
15937;DHT22;9163;48.818;8.976;2022-09-03T09:52:19;26.00;99.90
15937;DHT22;9163;48.818;8.976;2022-09-03T09:54:51;26.20;99.90
15937;DHT22;9163;48.818;8.976;2022-09-03T09:57:23;26.30;99.90
15937;DHT22;9163;48.818;8.976;2022-09-03T10:00:04;25.70;99.90
15937;DHT22;9163;48.818;8.976;2022-09-03T10:02:35;26.00;99.90
15937;DHT22;9163;48.818;8.976;2022-09-03T10:05:13;26.00;99.90
15937;DHT22;9163;48.818;8.976;2022-09-03T10:07:41;26.10;99.90
15937;DHT22;9163;48.818;8.976;2022-09-03T10:10:15;26.10;99.90
15937;DHT22;9163;48.818;8.976;2022-09-03T10:12:47;26.20;99.90
15937;DHT22;9163;48.818;8.976;2022-09-03T10:15:26;26.40;99.90
15937;DHT22;9163;48.818;8.976;2022-09-03T10:18:01;26.60;99.90
15937;DHT22;9163;48.818;8.976;2022-09-03T10:20:38;26.80;99.90
15937;DHT22;9163;48.818;8.976;2022-09-03T10:23:12;27.20;99.90
15937;DHT22;9163;48.818;8.976;2022-09-03T10:25:52;27.70;99.90
15937;DHT22;9163;48.818;8.976;2022-09-03T10:28:24;27.80;99.90
15937;DHT22;9163;48.818;8.976;2022-09-03T10:33:53;28.00;99.90
15937;DHT22;9163;48.818;8.976;2022-09-03T10:36:24;28.40;99.90
15937;DHT22;9163;48.818;8.976;2022-09-03T10:38:54;28.70;99.90
15937;DHT22;9163;48.818;8.976;2022-09-03T10:41:36;29.10;99.90
15937;DHT22;9163;48.818;8.976;2022-09-03T10:44:22;29.30;99.90
15937;DHT22;9163;48.818;8.976;2022-09-03T10:47:02;29.20;99.90
15937;DHT22;9163;48.818;8.976;2022-09-03T10:49:48;28.70;99.90
15937;DHT22;9163;48.818;8.976;2022-09-03T10:52:25;28.20;99.90
15937;DHT22;9163;48.818;8.976;2022-09-03T10:55:11;28.00;99.90
15937;DHT22;9163;48.818;8.976;2022-09-03T10:57:47;27.20;99.90
15937;DHT22;9163;48.818;8.976;2022-09-03T11:00:17;26.40;99.90
15937;DHT22;9163;48.818;8.976;2022-09-03T11:03:09;25.90;99.90
15937;DHT22;9163;48.818;8.976;2022-09-03T11:05:42;26.00;99.90
15937;DHT22;9163;48.818;8.976;2022-09-03T11:08:17;25.90;99.90
15937;DHT22;9163;48.818;8.976;2022-09-03T11:10:51;25.70;99.90
15937;DHT22;9163;48.818;8.976;2022-09-03T11:13:22;25.70;99.90
15937;DHT22;9163;48.818;8.976;2022-09-03T11:15:53;25.90;99.90
15937;DHT22;9163;48.818;8.976;2022-09-03T11:18:26;25.40;99.90
15937;DHT22;9163;48.818;8.976;2022-09-03T11:20:56;25.10;99.90
15937;DHT22;9163;48.818;8.976;2022-09-03T11:23:27;24.50;99.90
15937;DHT22;9163;48.818;8.976;2022-09-03T11:25:57;24.80;99.90
15937;DHT22;9163;48.818;8.976;2022-09-03T11:28:34;24.70;99.90
15937;DHT22;9163;48.818;8.976;2022-09-03T11:31:19;24.70;99.90
15937;DHT22;9163;48.818;8.976;2022-09-03T11:33:53;24.50;99.90
15937;DHT22;9163;48.818;8.976;2022-09-03T11:36:28;24.50;99.90
15937;DHT22;9163;48.818;8.976;2022-09-03T11:38:56;24.50;99.90
15937;DHT22;9163;48.818;8.976;2022-09-03T11:41:26;24.50;99.90
15937;DHT22;9163;48.818;8.976;2022-09-03T11:43:54;24.50;99.90
15937;DHT22;9163;48.818;8.976;2022-09-03T11:46:28;24.30;99.90
15937;DHT22;9163;48.818;8.976;2022-09-03T11:49:09;24.30;99.90
15937;DHT22;9163;48.818;8.976;2022-09-03T11:51:38;24.00;99.90
15937;DHT22;9163;48.818;8.976;2022-09-03T11:54:24;23.70;99.90
15937;DHT22;9163;48.818;8.976;2022-09-03T11:57:06;23.50;99.90
15937;DHT22;9163;48.818;8.976;2022-09-03T11:59:37;23.50;99.90
15937;DHT22;9163;48.818;8.976;2022-09-03T12:02:13;23.40;99.90
15937;DHT22;9163;48.818;8.976;2022-09-03T12:04:49;23.30;99.90
15937;DHT22;9163;48.818;8.976;2022-09-03T12:07:40;23.10;99.90
15937;DHT22;9163;48.818;8.976;2022-09-03T12:10:29;22.70;99.90
15937;DHT22;9163;48.818;8.976;2022-09-03T12:13:07;22.40;99.90
15937;DHT22;9163;48.818;8.976;2022-09-03T12:16:20;22.10;99.90
15937;DHT22;9163;48.818;8.976;2022-09-03T12:18:53;21.80;99.90
15937;DHT22;9163;48.818;8.976;2022-09-03T12:21:25;21.70;99.90
15937;DHT22;9163;48.818;8.976;2022-09-03T12:23:52;21.60;99.90
15937;DHT22;9163;48.818;8.976;2022-09-03T12:26:22;21.50;99.90
15937;DHT22;9163;48.818;8.976;2022-09-03T12:28:52;20.80;99.90
15937;DHT22;9163;48.818;8.976;2022-09-03T12:31:22;19.60;99.90
15937;DHT22;9163;48.818;8.976;2022-09-03T12:33:52;18.40;99.90
15937;DHT22;9163;48.818;8.976;2022-09-03T12:36:20;17.50;99.90
15937;DHT22;9163;48.818;8.976;2022-09-03T12:38:49;16.90;99.90
15937;DHT22;9163;48.818;8.976;2022-09-03T12:41:23;16.50;99.90
15937;DHT22;9163;48.818;8.976;2022-09-03T12:43:52;16.20;99.90
15937;DHT22;9163;48.818;8.976;2022-09-03T12:46:25;16.20;99.90
15937;DHT22;9163;48.818;8.976;2022-09-03T12:48:56;16.30;99.90
15937;DHT22;9163;48.818;8.976;2022-09-03T12:51:33;16.40;99.90
15937;DHT22;9163;48.818;8.976;2022-09-03T12:54:03;16.50;99.90
15937;DHT22;9163;48.818;8.976;2022-09-03T12:56:32;16.60;99.90
15937;DHT22;9163;48.818;8.976;2022-09-03T12:59:03;16.80;99.90
15937;DHT22;9163;48.818;8.976;2022-09-03T13:01:33;17.10;99.90
15937;DHT22;9163;48.818;8.976;2022-09-03T13:04:05;17.20;99.90
15937;DHT22;9163;48.818;8.976;2022-09-03T13:06:44;17.60;99.90
15937;DHT22;9163;48.818;8.976;2022-09-03T13:09:19;17.80;99.90
15937;DHT22;9163;48.818;8.976;2022-09-03T13:11:47;18.40;99.90
15937;DHT22;9163;48.818;8.976;2022-09-03T13:14:16;18.80;99.90
15937;DHT22;9163;48.818;8.976;2022-09-03T13:17:01;19.30;99.90
15937;DHT22;9163;48.818;8.976;2022-09-03T13:19:37;19.50;99.90
15937;DHT22;9163;48.818;8.976;2022-09-03T13:22:14;19.50;99.90
15937;DHT22;9163;48.818;8.976;2022-09-03T13:24:57;19.30;99.90
15937;DHT22;9163;48.818;8.976;2022-09-03T13:27:31;19.40;99.90
15937;DHT22;9163;48.818;8.976;2022-09-03T13:30:07;19.50;99.90
15937;DHT22;9163;48.818;8.976;2022-09-03T13:32:43;19.70;99.90
15937;DHT22;9163;48.818;8.976;2022-09-03T13:35:23;19.40;99.90
15937;DHT22;9163;48.818;8.976;2022-09-03T13:37:54;19.30;99.90
15937;DHT22;9163;48.818;8.976;2022-09-03T13:40:31;19.20;99.90
15937;DHT22;9163;48.818;8.976;2022-09-03T13:43:02;19.10;99.90
15937;DHT22;9163;48.818;8.976;2022-09-03T13:45:36;19.30;99.90
15937;DHT22;9163;48.818;8.976;2022-09-03T13:48:10;19.60;99.90
15937;DHT22;9163;48.818;8.976;2022-09-03T13:51:08;20.10;99.90
15937;DHT22;9163;48.818;8.976;2022-09-03T13:53:46;20.40;99.90
15937;DHT22;9163;48.818;8.976;2022-09-03T13:56:24;20.60;99.90
15937;DHT22;9163;48.818;8.976;2022-09-03T13:58:59;20.70;99.90
15937;DHT22;9163;48.818;8.976;2022-09-03T14:01:40;20.20;99.90
15937;DHT22;9163;48.818;8.976;2022-09-03T14:04:16;20.00;99.90
15937;DHT22;9163;48.818;8.976;2022-09-03T14:06:55;19.90;99.90
15937;DHT22;9163;48.818;8.976;2022-09-03T14:09:32;20.00;99.90
15937;DHT22;9163;48.818;8.976;2022-09-03T14:12:09;19.80;99.90
15937;DHT22;9163;48.818;8.976;2022-09-03T14:14:45;19.80;99.90
15937;DHT22;9163;48.818;8.976;2022-09-03T14:17:29;19.50;99.90
15937;DHT22;9163;48.818;8.976;2022-09-03T14:20:00;19.40;99.90
15937;DHT22;9163;48.818;8.976;2022-09-03T14:22:37;19.30;99.90
15937;DHT22;9163;48.818;8.976;2022-09-03T14:25:11;19.30;99.90
15937;DHT22;9163;48.818;8.976;2022-09-03T14:27:42;19.30;99.90
15937;DHT22;9163;48.818;8.976;2022-09-03T14:30:19;19.50;99.90
15937;DHT22;9163;48.818;8.976;2022-09-03T14:32:55;19.50;99.90
15937;DHT22;9163;48.818;8.976;2022-09-03T14:35:36;19.50;99.90
15937;DHT22;9163;48.818;8.976;2022-09-03T14:41:27;20.20;99.90
15937;DHT22;9163;48.818;8.976;2022-09-03T14:44:22;20.60;99.90
15937;DHT22;9163;48.818;8.976;2022-09-03T14:47:05;21.10;99.90
15937;DHT22;9163;48.818;8.976;2022-09-03T14:49:46;21.30;99.90
15937;DHT22;9163;48.818;8.976;2022-09-03T14:52:32;21.10;99.90
15937;DHT22;9163;48.818;8.976;2022-09-03T14:55:28;21.00;99.90
15937;DHT22;9163;48.818;8.976;2022-09-03T14:58:14;21.00;99.90
15937;DHT22;9163;48.818;8.976;2022-09-03T15:00:51;21.30;99.90
15937;DHT22;9163;48.818;8.976;2022-09-03T15:03:42;21.30;99.90
15937;DHT22;9163;48.818;8.976;2022-09-03T15:06:37;21.50;99.90
15937;DHT22;9163;48.818;8.976;2022-09-03T15:09:17;21.50;99.90
15937;DHT22;9163;48.818;8.976;2022-09-03T15:11:51;21.40;99.90
15937;DHT22;9163;48.818;8.976;2022-09-03T15:14:25;21.30;99.90
15937;DHT22;9163;48.818;8.976;2022-09-03T15:16:59;21.50;99.90
15937;DHT22;9163;48.818;8.976;2022-09-03T15:19:47;21.70;99.90
15937;DHT22;9163;48.818;8.976;2022-09-03T15:22:30;21.90;99.90
15937;DHT22;9163;48.818;8.976;2022-09-03T15:25:06;21.80;99.90
15937;DHT22;9163;48.818;8.976;2022-09-03T15:28:04;21.60;99.90
15937;DHT22;9163;48.818;8.976;2022-09-03T15:30:35;21.80;99.90
15937;DHT22;9163;48.818;8.976;2022-09-03T15:33:17;21.90;99.90
15937;DHT22;9163;48.818;8.976;2022-09-03T15:36:02;21.90;99.90
15937;DHT22;9163;48.818;8.976;2022-09-03T15:38:39;21.80;99.90
15937;DHT22;9163;48.818;8.976;2022-09-03T15:41:16;21.70;99.90
15937;DHT22;9163;48.818;8.976;2022-09-03T15:43:48;21.60;99.90
15937;DHT22;9163;48.818;8.976;2022-09-03T15:49:29;21.50;99.90
15937;DHT22;9163;48.818;8.976;2022-09-03T15:52:25;21.30;99.90
15937;DHT22;9163;48.818;8.976;2022-09-03T15:55:01;21.20;99.90
15937;DHT22;9163;48.818;8.976;2022-09-03T15:57:36;21.10;99.90
15937;DHT22;9163;48.818;8.976;2022-09-03T16:00:10;21.10;99.90
15937;DHT22;9163;48.818;8.976;2022-09-03T16:02:42;21.10;99.90
15937;DHT22;9163;48.818;8.976;2022-09-03T16:05:15;21.00;99.90
15937;DHT22;9163;48.818;8.976;2022-09-03T16:08:06;20.80;99.90
15937;DHT22;9163;48.818;8.976;2022-09-03T16:10:45;20.80;99.90
15937;DHT22;9163;48.818;8.976;2022-09-03T16:13:34;20.70;99.90
15937;DHT22;9163;48.818;8.976;2022-09-03T16:16:06;20.70;99.90
15937;DHT22;9163;48.818;8.976;2022-09-03T16:18:37;20.70;99.90
15937;DHT22;9163;48.818;8.976;2022-09-03T16:21:11;20.80;99.90
15937;DHT22;9163;48.818;8.976;2022-09-03T16:23:45;20.80;99.90
15937;DHT22;9163;48.818;8.976;2022-09-03T16:26:24;20.90;99.90
15937;DHT22;9163;48.818;8.976;2022-09-03T16:28:59;20.90;99.90
15937;DHT22;9163;48.818;8.976;2022-09-03T16:31:47;21.00;99.90
15937;DHT22;9163;48.818;8.976;2022-09-03T16:34:23;21.00;99.90
15937;DHT22;9163;48.818;8.976;2022-09-03T16:37:03;21.10;99.90